Burnley, Australia

9:49 PM AEDT on March 29, 2017 (GMT +1100)
Burnley | | Change Station

Elev 59 ft 37.82 °S, 145.01 °E | Updated 20 seconds ago

Overcast
Overcast
58.8 °F
Feels Like 58.8 °F
N
6.5
Wind Variable Wind from West
Gusts 9.8 mph

Today
High -- | Low -- °F
--% Chance of Precip.
Yesterday
High -- | Low -- °F
Precip. -- in
Pressure 29.86 in
Visibility 6.2 miles
Clouds Few 1500 ft
Scattered Clouds 2000 ft
Mostly Cloudy 3400 ft
Dew Point 48 °F
Humidity 66%
Rainfall 0.00 in
Snow Depth Not available.
7:30 AM 7:17 PM
New Moon, 2% visible
METAR YMML 291030Z 23016KT 9999 FEW015 SCT020 BKN034 13/08 Q1011 TEMPO 1030/1200 3000 SHRA BKN010 INTER 1200/1330 4000 SHRA BKN015
Pressure 29.86 in
Visibility 6.2 miles
Clouds Few 1500 ft
Scattered Clouds 2000 ft
Mostly Cloudy 3400 ft
Dew Point 48 °F
Humidity 66%
Rainfall 0.00 in
Snow Depth Not available.
7:30 AM 7:17 PM
New Moon, 2% visible
METAR YMML 291030Z 23016KT 9999 FEW015 SCT020 BKN034 13/08 Q1011 TEMPO 1030/1200 3000 SHRA BKN010 INTER 1200/1330 4000 SHRA BKN015

Get Severe Weather Alerts

Thanks for signing up!

Be on the lookout for a verification email in your inbox.

You'll start receiving the daily forecast at 8 AM.

×

10-Day Weather Forecast

×

Almanac

Astronomy

Mar. 29, 2017 Rise Set
Actual Time
Civil Twilight
Nautical Twilight
Astronomical Twilight
Moon
Length of Visible Light
Length of Day
Tomorrow will be .
, % of the Moon is Illuminated

Today's Extremes

Country Highs Country Lows

Community

WunderPhotos

Upload Photos

1,962,540 photos uploaded!

WunderBlog® & News

Nearby

Air Quality

  Air Quality AQ Index Pollutant
Not available.

Snow Depth

Station Depth Elevation

Earthquake Activity

City Distance Mag. Time & Date
Minimum magnitude displayed is 2.5.

Earthquake Activity

City Distance Mag. Time & Date
Minimum magnitude displayed is 2.5.

Coastal Water Temperatures

Place Temperature

Stations

Nearby Weather Stations

Station Location Temp. Windchill Dew Point Humidity Wind Precip. Elev Updated Type